Flight Track Log - Related Links

Times and Time Zones

All times are in EDT time to prevent confusion due to time zone crossing. See the N885FT flight status page for this flight to view local times or setup timezone preferences in your user account.

Time Position Orientation Groundspeed Altitude Reporting Facility
EDT Latitude Longitude Course Direction KTS MPH feet Rate Location/Type
Fri 10:01:30 PM 28.0986 -81.1231 269° West 166 191 5,900  Level Miami Center
Fri 10:02:30 PM 28.0978 -81.1747 269° West 166 191 6,000 50 Climbing Miami Center
Fri 10:03:30 PM 28.0833 -81.2333 254° West 161 185 6,000  Level Orlando TRACON
Fri 10:04:30 PM 28.0833 -81.2833 270° West 161 185 6,000  Level Orlando TRACON
Fri 10:05:24 PM 28.0833 -81.3167 270° West 159 183 6,000  Level Orlando TRACON
Fri 10:06:36 PM 28.0692 -81.3750 255° West 163 188 6,000  Level Miami Center
Fri 10:07:36 PM 28.0639 -81.4275 264° West 169 194 6,000  Level Miami Center
Fri 10:08:36 PM 28.0564 -81.4822 261° West 174 200 6,000  Level Miami Center
Fri 10:09:39 PM 28.0506 -81.5431 264° West 164 189 6,000  Level Miami Center
Fri 10:10:38 PM 28.0417 -81.5944 259° West 165 190 6,000  Level Miami Center
Fri 10:11:39 PM 28.0358 -81.6469 263° West 168 193 6,000  Level Miami Center
Fri 10:12:42 PM 28.0281 -81.6989 260° West 168 193 6,000  Level Miami Center
Fri 10:13:43 PM 28.0208 -81.7517 261° West 168 193 6,000  Level Miami Center
Fri 10:14:44 PM 28.0150 -81.8033 263° West 168 193 6,000  Level Miami Center
Fri 10:15:44 PM 28.0075 -81.8556 261° West 169 194 6,000 -49 Level Miami Center
Fri 10:16:46 PM 28.0006 -81.9081 261° West 169 194 5,900 -393 Descending Miami Center
Fri 10:17:46 PM 27.9939 -81.9622 262° West 171 197 5,200 -595 Descending Miami Center
Fri 10:18:47 PM 27.9861 -82.0136 260° West 169 194 4,700 -585 Descending Miami Center
Fri 10:19:49 PM 27.9856 -82.0786 269° West 170 196 4,000 -347 Descending Miami Center
Fri 10:20:48 PM 27.9839 -82.1269 268° West 160 184 4,000  Level Miami Center
Fri 10:21:50 PM 27.9833 -82.1747 269° West 155 178 4,000  Level Miami Center
Fri 10:22:49 PM 27.9814 -82.2228 267° West 155 178 4,000  Level Miami Center
Fri 10:23:50 PM 27.9817 -82.2717 270° West 155 178 4,000  Level Miami Center
Fri 10:24:52 PM 27.9803 -82.3197 268° West 155 178 4,000  Level Miami Center
Fri 10:26:01 PM 27.9833 -82.3833 273° West 157 181 4,000 43 Level Tampa TRACON
Fri 10:27:13 PM 27.9333 -82.4000 196° South 130 150 4,100 45 Climbing Tampa TRACON
Fri 10:28:13 PM 27.9000 -82.4167 204° Southwest 134 154 4,100 -300 Level Tampa TRACON
Fri 10:29:13 PM 27.8667 -82.4167 180° South 138 159 3,500 -500 Descending Tampa TRACON
Fri 10:30:13 PM 27.8333 -82.4333 204° Southwest 139 160 3,100 -263 Descending Tampa TRACON
Fri 10:31:07 PM 27.8000 -82.4500 204° Southwest 125 144 3,000  Descending Tampa TRACON
Fri 10:32:07 PM 27.7667 -82.4667 204° Southwest 114 131 3,100 -87 Climbing Tampa TRACON
Fri 10:33:25 PM 27.7333 -82.4833 204° Southwest 133 153 2,800 -174 Descending Tampa TRACON
Fri 10:34:25 PM 27.7500 -82.5333 291° West 147 169 2,700 -58 Descending Tampa TRACON
Fri 10:35:08 PM 27.7667 -82.5333 360° North 143 165 2,700  Level Tampa TRACON
Fri 10:36:07 PM 27.8000 -82.5333 360° North 135 155 2,700  Level Tampa TRACON
Fri 10:37:08 PM 27.8500 -82.5333 360° North 133 153 2,700 -313 Level Tampa TRACON
Fri 10:38:02 PM 27.8833 -82.5333 360° North 128 147 2,100 -700 Descending Tampa TRACON
Fri 10:39:08 PM 27.9167 -82.5333 360° North 114 131 1,300 -714 Descending Tampa TRACON
Fri 10:40:08 PM 27.9500 -82.5333 360° North 110 127 600 -360 Descending Tampa TRACON
Fri 10:41:38 PM 27.9833 -82.5333 360° North 90 104 400 -133 Descending Tampa TRACON

Login

Don't have an account? Register now (free) for customized features, flight alerts, and more!